Terminal Aerodrome Forecast
Issued by NWS Charleston, WV

Current Version | Previous Version | Graphics & Text | Print | Product List | Glossary On
Versions: 1 2 3 4 5 6 7 8 9 10 11 12 13 14 15 16 17 18 19 20 21 22 23 24 25 26 27
000
FTUS41 KRLX 151917 AAA
TAFEKN
TAF AMD
KEKN 151917Z 1519/1618 25009G18KT P6SM OVC020
     FM152200 27007KT P6SM BKN035
     FM160300 28007KT P6SM OVC025
     FM161000 28007KT P6SM SCT045
     FM161200 27007KT P6SM SCT100=

USA.gov is the U.S. government's official web portal to all federal, state and local government web resources and services.